sensor_id;sensor_type;location;lat;lon;timestamp;P1;durP1;ratioP1;P2;durP2;ratioP2
663;SDS011;314;48.770;9.246;2022-08-19T00:00:23;17.63;;;6.43;;
663;SDS011;314;48.770;9.246;2022-08-19T00:02:49;14.38;;;7.10;;
663;SDS011;314;48.770;9.246;2022-08-19T00:05:15;15.63;;;7.50;;
663;SDS011;314;48.770;9.246;2022-08-19T00:07:42;11.13;;;6.35;;
663;SDS011;314;48.770;9.246;2022-08-19T00:10:09;15.75;;;7.85;;
663;SDS011;314;48.770;9.246;2022-08-19T00:12:37;17.20;;;8.05;;
663;SDS011;314;48.770;9.246;2022-08-19T00:15:04;10.35;;;5.55;;
663;SDS011;314;48.770;9.246;2022-08-19T00:17:33;12.98;;;6.38;;
663;SDS011;314;48.770;9.246;2022-08-19T00:19:59;12.67;;;6.60;;
663;SDS011;314;48.770;9.246;2022-08-19T00:22:24;9.97;;;5.80;;
663;SDS011;314;48.770;9.246;2022-08-19T00:24:53;13.88;;;5.68;;
663;SDS011;314;48.770;9.246;2022-08-19T00:27:19;17.27;;;7.00;;
663;SDS011;314;48.770;9.246;2022-08-19T00:29:44;16.07;;;8.10;;
663;SDS011;314;48.770;9.246;2022-08-19T00:32:10;16.17;;;8.33;;
663;SDS011;314;48.770;9.246;2022-08-19T00:34:37;13.07;;;6.68;;
663;SDS011;314;48.770;9.246;2022-08-19T00:37:03;10.17;;;5.87;;
663;SDS011;314;48.770;9.246;2022-08-19T00:39:28;13.00;;;7.10;;
663;SDS011;314;48.770;9.246;2022-08-19T00:41:55;17.50;;;7.90;;
663;SDS011;314;48.770;9.246;2022-08-19T00:44:26;11.70;;;5.90;;
663;SDS011;314;48.770;9.246;2022-08-19T00:46:54;12.13;;;6.53;;
663;SDS011;314;48.770;9.246;2022-08-19T00:49:37;16.25;;;7.32;;
663;SDS011;314;48.770;9.246;2022-08-19T00:52:12;14.93;;;7.63;;
663;SDS011;314;48.770;9.246;2022-08-19T00:54:41;14.50;;;7.85;;
663;SDS011;314;48.770;9.246;2022-08-19T00:57:09;14.40;;;6.75;;
663;SDS011;314;48.770;9.246;2022-08-19T00:59:39;13.30;;;6.63;;
663;SDS011;314;48.770;9.246;2022-08-19T01:02:07;12.90;;;6.63;;
663;SDS011;314;48.770;9.246;2022-08-19T01:04:33;14.32;;;6.88;;
663;SDS011;314;48.770;9.246;2022-08-19T01:06:59;12.23;;;5.03;;
663;SDS011;314;48.770;9.246;2022-08-19T01:09:26;13.45;;;5.78;;
663;SDS011;314;48.770;9.246;2022-08-19T01:11:52;9.70;;;5.93;;
663;SDS011;314;48.770;9.246;2022-08-19T01:14:18;12.80;;;6.38;;
663;SDS011;314;48.770;9.246;2022-08-19T01:16:44;21.92;;;7.50;;
663;SDS011;314;48.770;9.246;2022-08-19T01:19:26;17.60;;;9.30;;
663;SDS011;314;48.770;9.246;2022-08-19T01:21:57;12.52;;;7.00;;
663;SDS011;314;48.770;9.246;2022-08-19T01:24:34;13.45;;;7.35;;
663;SDS011;314;48.770;9.246;2022-08-19T01:27:02;13.43;;;5.93;;
663;SDS011;314;48.770;9.246;2022-08-19T01:29:29;15.73;;;8.68;;
663;SDS011;314;48.770;9.246;2022-08-19T01:31:55;10.05;;;5.80;;
663;SDS011;314;48.770;9.246;2022-08-19T01:34:22;14.50;;;7.70;;
663;SDS011;314;48.770;9.246;2022-08-19T01:36:48;14.05;;;6.82;;
663;SDS011;314;48.770;9.246;2022-08-19T01:39:18;17.30;;;9.47;;
663;SDS011;314;48.770;9.246;2022-08-19T01:41:47;14.88;;;6.53;;
663;SDS011;314;48.770;9.246;2022-08-19T01:44:13;13.70;;;7.17;;
663;SDS011;314;48.770;9.246;2022-08-19T01:46:40;13.45;;;8.00;;
663;SDS011;314;48.770;9.246;2022-08-19T01:49:07;11.50;;;6.32;;
663;SDS011;314;48.770;9.246;2022-08-19T01:51:33;14.52;;;6.80;;
663;SDS011;314;48.770;9.246;2022-08-19T01:54:00;17.55;;;8.38;;
663;SDS011;314;48.770;9.246;2022-08-19T01:56:26;17.15;;;8.10;;
663;SDS011;314;48.770;9.246;2022-08-19T01:58:56;16.70;;;6.90;;
663;SDS011;314;48.770;9.246;2022-08-19T02:01:26;13.95;;;7.57;;
663;SDS011;314;48.770;9.246;2022-08-19T02:03:53;15.13;;;7.45;;
663;SDS011;314;48.770;9.246;2022-08-19T02:06:19;14.60;;;7.93;;
663;SDS011;314;48.770;9.246;2022-08-19T02:08:45;18.45;;;9.35;;
663;SDS011;314;48.770;9.246;2022-08-19T02:11:22;18.85;;;9.45;;
663;SDS011;314;48.770;9.246;2022-08-19T02:13:51;13.82;;;6.43;;
663;SDS011;314;48.770;9.246;2022-08-19T02:16:18;11.80;;;6.22;;
663;SDS011;314;48.770;9.246;2022-08-19T02:18:45;13.77;;;6.35;;
663;SDS011;314;48.770;9.246;2022-08-19T02:21:13;14.75;;;6.88;;
663;SDS011;314;48.770;9.246;2022-08-19T02:23:41;15.07;;;7.50;;
663;SDS011;314;48.770;9.246;2022-08-19T02:26:07;17.05;;;7.35;;
663;SDS011;314;48.770;9.246;2022-08-19T02:28:34;13.38;;;7.45;;
663;SDS011;314;48.770;9.246;2022-08-19T02:30:59;15.40;;;8.80;;
663;SDS011;314;48.770;9.246;2022-08-19T02:33:27;14.95;;;6.25;;
663;SDS011;314;48.770;9.246;2022-08-19T02:35:53;17.63;;;8.10;;
663;SDS011;314;48.770;9.246;2022-08-19T02:38:18;16.20;;;8.47;;
663;SDS011;314;48.770;9.246;2022-08-19T02:40:55;16.50;;;8.13;;
663;SDS011;314;48.770;9.246;2022-08-19T02:43:21;18.38;;;7.53;;
663;SDS011;314;48.770;9.246;2022-08-19T02:45:47;19.67;;;8.57;;
663;SDS011;314;48.770;9.246;2022-08-19T02:48:20;17.80;;;7.78;;
663;SDS011;314;48.770;9.246;2022-08-19T02:50:48;17.92;;;7.65;;
663;SDS011;314;48.770;9.246;2022-08-19T02:53:20;18.63;;;9.18;;
663;SDS011;314;48.770;9.246;2022-08-19T02:55:47;17.25;;;7.78;;
663;SDS011;314;48.770;9.246;2022-08-19T02:58:14;17.58;;;7.50;;
663;SDS011;314;48.770;9.246;2022-08-19T03:00:45;15.75;;;9.40;;
663;SDS011;314;48.770;9.246;2022-08-19T03:03:14;22.17;;;8.70;;
663;SDS011;314;48.770;9.246;2022-08-19T03:05:40;22.48;;;9.35;;
663;SDS011;314;48.770;9.246;2022-08-19T03:08:07;13.93;;;8.20;;
663;SDS011;314;48.770;9.246;2022-08-19T03:10:55;18.08;;;8.88;;
663;SDS011;314;48.770;9.246;2022-08-19T03:13:21;19.80;;;8.07;;
663;SDS011;314;48.770;9.246;2022-08-19T03:15:48;21.35;;;8.63;;
663;SDS011;314;48.770;9.246;2022-08-19T03:18:14;20.27;;;9.30;;
663;SDS011;314;48.770;9.246;2022-08-19T03:20:51;18.70;;;8.32;;
663;SDS011;314;48.770;9.246;2022-08-19T03:23:19;18.00;;;8.90;;
663;SDS011;314;48.770;9.246;2022-08-19T03:25:46;29.67;;;10.73;;
663;SDS011;314;48.770;9.246;2022-08-19T03:28:14;21.15;;;9.52;;
663;SDS011;314;48.770;9.246;2022-08-19T03:30:41;22.70;;;8.63;;
663;SDS011;314;48.770;9.246;2022-08-19T03:33:09;19.85;;;8.80;;
663;SDS011;314;48.770;9.246;2022-08-19T03:35:37;22.88;;;10.13;;
663;SDS011;314;48.770;9.246;2022-08-19T03:38:06;22.27;;;10.50;;
663;SDS011;314;48.770;9.246;2022-08-19T03:40:32;17.90;;;9.93;;
663;SDS011;314;48.770;9.246;2022-08-19T03:43:01;27.05;;;10.02;;
663;SDS011;314;48.770;9.246;2022-08-19T03:45:27;21.98;;;11.13;;
663;SDS011;314;48.770;9.246;2022-08-19T03:47:54;18.98;;;8.40;;
663;SDS011;314;48.770;9.246;2022-08-19T03:50:21;23.00;;;10.57;;
663;SDS011;314;48.770;9.246;2022-08-19T03:52:48;22.30;;;9.93;;
663;SDS011;314;48.770;9.246;2022-08-19T03:55:19;14.77;;;9.40;;
663;SDS011;314;48.770;9.246;2022-08-19T03:57:45;22.23;;;9.27;;
663;SDS011;314;48.770;9.246;2022-08-19T04:00:12;22.70;;;10.20;;
663;SDS011;314;48.770;9.246;2022-08-19T04:02:38;23.83;;;9.02;;
663;SDS011;314;48.770;9.246;2022-08-19T04:05:05;24.20;;;10.98;;
663;SDS011;314;48.770;9.246;2022-08-19T04:07:33;22.38;;;11.20;;
663;SDS011;314;48.770;9.246;2022-08-19T04:09:59;19.30;;;9.07;;
663;SDS011;314;48.770;9.246;2022-08-19T04:12:25;22.30;;;10.10;;
663;SDS011;314;48.770;9.246;2022-08-19T04:14:51;17.80;;;8.60;;
663;SDS011;314;48.770;9.246;2022-08-19T04:17:17;31.95;;;10.55;;
663;SDS011;314;48.770;9.246;2022-08-19T04:19:47;22.98;;;9.63;;
663;SDS011;314;48.770;9.246;2022-08-19T04:22:12;18.97;;;10.33;;
663;SDS011;314;48.770;9.246;2022-08-19T04:24:38;18.27;;;10.43;;
663;SDS011;314;48.770;9.246;2022-08-19T04:27:04;22.95;;;10.68;;
663;SDS011;314;48.770;9.246;2022-08-19T04:29:33;21.27;;;9.93;;
663;SDS011;314;48.770;9.246;2022-08-19T04:31:59;30.45;;;13.35;;
663;SDS011;314;48.770;9.246;2022-08-19T04:34:26;24.77;;;9.65;;
663;SDS011;314;48.770;9.246;2022-08-19T04:36:55;30.17;;;10.68;;
663;SDS011;314;48.770;9.246;2022-08-19T04:39:23;22.15;;;10.98;;
663;SDS011;314;48.770;9.246;2022-08-19T04:42:12;21.02;;;9.85;;
663;SDS011;314;48.770;9.246;2022-08-19T04:45:04;26.55;;;12.50;;
663;SDS011;314;48.770;9.246;2022-08-19T04:47:31;24.83;;;11.77;;
663;SDS011;314;48.770;9.246;2022-08-19T04:49:58;22.40;;;8.93;;
663;SDS011;314;48.770;9.246;2022-08-19T04:52:24;25.30;;;10.48;;
663;SDS011;314;48.770;9.246;2022-08-19T04:54:50;37.17;;;10.98;;
663;SDS011;314;48.770;9.246;2022-08-19T04:57:16;24.73;;;11.67;;
663;SDS011;314;48.770;9.246;2022-08-19T04:59:42;23.00;;;10.27;;
663;SDS011;314;48.770;9.246;2022-08-19T05:02:08;24.70;;;10.30;;
663;SDS011;314;48.770;9.246;2022-08-19T05:04:38;19.40;;;8.88;;
663;SDS011;314;48.770;9.246;2022-08-19T05:07:04;28.08;;;10.90;;
663;SDS011;314;48.770;9.246;2022-08-19T05:09:31;24.92;;;12.30;;
663;SDS011;314;48.770;9.246;2022-08-19T05:11:57;21.10;;;10.35;;
663;SDS011;314;48.770;9.246;2022-08-19T05:14:23;22.60;;;10.87;;
663;SDS011;314;48.770;9.246;2022-08-19T05:16:49;25.67;;;9.90;;
663;SDS011;314;48.770;9.246;2022-08-19T05:19:15;25.33;;;11.20;;
663;SDS011;314;48.770;9.246;2022-08-19T05:22:00;27.10;;;9.85;;
663;SDS011;314;48.770;9.246;2022-08-19T05:24:44;18.98;;;9.70;;
663;SDS011;314;48.770;9.246;2022-08-19T05:27:11;22.13;;;11.00;;
663;SDS011;314;48.770;9.246;2022-08-19T05:29:37;28.83;;;10.20;;
663;SDS011;314;48.770;9.246;2022-08-19T05:32:04;19.65;;;9.95;;
663;SDS011;314;48.770;9.246;2022-08-19T05:34:33;24.95;;;11.77;;
663;SDS011;314;48.770;9.246;2022-08-19T05:37:02;23.42;;;10.60;;
663;SDS011;314;48.770;9.246;2022-08-19T05:39:31;21.30;;;10.50;;
663;SDS011;314;48.770;9.246;2022-08-19T05:42:00;23.20;;;10.40;;
663;SDS011;314;48.770;9.246;2022-08-19T05:44:29;24.48;;;9.43;;
663;SDS011;314;48.770;9.246;2022-08-19T05:46:56;25.10;;;12.05;;
663;SDS011;314;48.770;9.246;2022-08-19T05:49:23;28.45;;;11.98;;
663;SDS011;314;48.770;9.246;2022-08-19T05:51:50;28.75;;;10.85;;
663;SDS011;314;48.770;9.246;2022-08-19T05:54:17;25.33;;;11.50;;
663;SDS011;314;48.770;9.246;2022-08-19T05:56:44;18.83;;;10.07;;
663;SDS011;314;48.770;9.246;2022-08-19T05:59:14;23.27;;;10.05;;
663;SDS011;314;48.770;9.246;2022-08-19T06:01:43;22.13;;;10.32;;
663;SDS011;314;48.770;9.246;2022-08-19T06:04:11;23.23;;;10.30;;
663;SDS011;314;48.770;9.246;2022-08-19T06:06:44;21.45;;;9.73;;
663;SDS011;314;48.770;9.246;2022-08-19T06:09:15;27.55;;;10.45;;
663;SDS011;314;48.770;9.246;2022-08-19T06:11:42;23.67;;;10.80;;
663;SDS011;314;48.770;9.246;2022-08-19T06:14:11;25.13;;;11.48;;
663;SDS011;314;48.770;9.246;2022-08-19T06:16:39;27.08;;;12.30;;
663;SDS011;314;48.770;9.246;2022-08-19T06:19:08;27.95;;;13.02;;
663;SDS011;314;48.770;9.246;2022-08-19T06:21:42;23.33;;;10.98;;
663;SDS011;314;48.770;9.246;2022-08-19T06:24:10;22.42;;;10.45;;
663;SDS011;314;48.770;9.246;2022-08-19T06:26:40;28.08;;;14.35;;
663;SDS011;314;48.770;9.246;2022-08-19T06:29:08;30.05;;;12.18;;
663;SDS011;314;48.770;9.246;2022-08-19T06:31:36;30.52;;;11.82;;
663;SDS011;314;48.770;9.246;2022-08-19T06:34:05;23.08;;;11.90;;
663;SDS011;314;48.770;9.246;2022-08-19T06:36:35;24.55;;;11.57;;
663;SDS011;314;48.770;9.246;2022-08-19T06:39:05;33.47;;;13.70;;
663;SDS011;314;48.770;9.246;2022-08-19T06:41:43;29.33;;;13.07;;
663;SDS011;314;48.770;9.246;2022-08-19T06:44:10;18.10;;;9.73;;
663;SDS011;314;48.770;9.246;2022-08-19T06:46:37;25.50;;;11.52;;
663;SDS011;314;48.770;9.246;2022-08-19T06:49:05;26.33;;;12.60;;
663;SDS011;314;48.770;9.246;2022-08-19T06:51:31;20.42;;;10.10;;
663;SDS011;314;48.770;9.246;2022-08-19T06:53:57;27.58;;;10.73;;
663;SDS011;314;48.770;9.246;2022-08-19T06:56:27;27.08;;;13.35;;
663;SDS011;314;48.770;9.246;2022-08-19T06:58:59;26.40;;;12.20;;
663;SDS011;314;48.770;9.246;2022-08-19T07:01:30;23.52;;;12.30;;
663;SDS011;314;48.770;9.246;2022-08-19T07:04:05;33.60;;;10.90;;
663;SDS011;314;48.770;9.246;2022-08-19T07:06:33;24.45;;;11.40;;
663;SDS011;314;48.770;9.246;2022-08-19T07:09:00;22.02;;;9.65;;
663;SDS011;314;48.770;9.246;2022-08-19T07:11:26;23.70;;;10.00;;
663;SDS011;314;48.770;9.246;2022-08-19T07:13:52;21.42;;;10.57;;
663;SDS011;314;48.770;9.246;2022-08-19T07:16:19;21.48;;;10.95;;
663;SDS011;314;48.770;9.246;2022-08-19T07:18:46;19.42;;;10.15;;
663;SDS011;314;48.770;9.246;2022-08-19T07:21:15;24.52;;;11.90;;
663;SDS011;314;48.770;9.246;2022-08-19T07:23:46;19.60;;;10.43;;
663;SDS011;314;48.770;9.246;2022-08-19T07:26:20;28.35;;;11.77;;
663;SDS011;314;48.770;9.246;2022-08-19T07:28:48;19.58;;;9.30;;
663;SDS011;314;48.770;9.246;2022-08-19T07:31:16;26.27;;;10.40;;
663;SDS011;314;48.770;9.246;2022-08-19T07:33:45;26.60;;;11.98;;
663;SDS011;314;48.770;9.246;2022-08-19T07:36:12;30.02;;;11.80;;
663;SDS011;314;48.770;9.246;2022-08-19T07:38:41;24.15;;;12.05;;
663;SDS011;314;48.770;9.246;2022-08-19T07:41:09;27.67;;;12.55;;
663;SDS011;314;48.770;9.246;2022-08-19T07:43:38;25.83;;;11.05;;
663;SDS011;314;48.770;9.246;2022-08-19T07:46:04;24.83;;;11.93;;
663;SDS011;314;48.770;9.246;2022-08-19T07:48:30;28.07;;;12.80;;
663;SDS011;314;48.770;9.246;2022-08-19T07:50:57;28.60;;;10.60;;
663;SDS011;314;48.770;9.246;2022-08-19T07:53:26;21.88;;;10.90;;
663;SDS011;314;48.770;9.246;2022-08-19T07:55:53;24.45;;;10.85;;
663;SDS011;314;48.770;9.246;2022-08-19T07:58:21;30.75;;;11.85;;
663;SDS011;314;48.770;9.246;2022-08-19T08:00:48;24.98;;;12.35;;
663;SDS011;314;48.770;9.246;2022-08-19T08:03:16;22.65;;;11.10;;
663;SDS011;314;48.770;9.246;2022-08-19T08:05:44;24.25;;;11.43;;
663;SDS011;314;48.770;9.246;2022-08-19T08:08:28;25.83;;;10.93;;
663;SDS011;314;48.770;9.246;2022-08-19T08:11:13;32.58;;;13.00;;
663;SDS011;314;48.770;9.246;2022-08-19T08:13:41;23.58;;;12.10;;
663;SDS011;314;48.770;9.246;2022-08-19T08:16:07;29.13;;;11.50;;
663;SDS011;314;48.770;9.246;2022-08-19T08:18:34;24.57;;;11.07;;
663;SDS011;314;48.770;9.246;2022-08-19T08:21:06;30.30;;;11.68;;
663;SDS011;314;48.770;9.246;2022-08-19T08:23:32;20.30;;;11.75;;
663;SDS011;314;48.770;9.246;2022-08-19T08:25:58;24.17;;;10.63;;
663;SDS011;314;48.770;9.246;2022-08-19T08:28:26;25.95;;;10.80;;
663;SDS011;314;48.770;9.246;2022-08-19T08:30:53;26.65;;;11.15;;
663;SDS011;314;48.770;9.246;2022-08-19T08:33:21;25.88;;;11.20;;
663;SDS011;314;48.770;9.246;2022-08-19T08:35:49;18.95;;;9.98;;
663;SDS011;314;48.770;9.246;2022-08-19T08:38:14;30.43;;;12.00;;
663;SDS011;314;48.770;9.246;2022-08-19T08:43:28;30.25;;;11.93;;
663;SDS011;314;48.770;9.246;2022-08-19T08:48:36;17.92;;;8.45;;
663;SDS011;314;48.770;9.246;2022-08-19T08:51:24;26.17;;;9.95;;
663;SDS011;314;48.770;9.246;2022-08-19T08:54:08;22.30;;;11.00;;
663;SDS011;314;48.770;9.246;2022-08-19T08:56:41;20.58;;;9.75;;
663;SDS011;314;48.770;9.246;2022-08-19T08:59:29;22.77;;;10.40;;
663;SDS011;314;48.770;9.246;2022-08-19T09:01:59;27.02;;;11.02;;
663;SDS011;314;48.770;9.246;2022-08-19T09:04:25;21.88;;;11.57;;
663;SDS011;314;48.770;9.246;2022-08-19T09:07:00;20.05;;;9.95;;
663;SDS011;314;48.770;9.246;2022-08-19T09:09:51;25.55;;;10.20;;
663;SDS011;314;48.770;9.246;2022-08-19T09:15:06;24.98;;;11.90;;
663;SDS011;314;48.770;9.246;2022-08-19T09:17:34;35.25;;;9.98;;
663;SDS011;314;48.770;9.246;2022-08-19T09:22:40;26.70;;;9.93;;
663;SDS011;314;48.770;9.246;2022-08-19T09:25:10;22.58;;;9.63;;
663;SDS011;314;48.770;9.246;2022-08-19T09:27:39;18.88;;;11.27;;
663;SDS011;314;48.770;9.246;2022-08-19T09:30:07;26.23;;;10.75;;
663;SDS011;314;48.770;9.246;2022-08-19T09:32:35;24.52;;;11.30;;
663;SDS011;314;48.770;9.246;2022-08-19T09:35:01;19.98;;;9.50;;
663;SDS011;314;48.770;9.246;2022-08-19T09:37:27;16.33;;;8.65;;
663;SDS011;314;48.770;9.246;2022-08-19T09:39:53;17.37;;;9.37;;
663;SDS011;314;48.770;9.246;2022-08-19T09:42:19;19.40;;;9.90;;
663;SDS011;314;48.770;9.246;2022-08-19T09:44:45;28.08;;;11.10;;
663;SDS011;314;48.770;9.246;2022-08-19T09:47:11;20.42;;;10.60;;
663;SDS011;314;48.770;9.246;2022-08-19T09:49:39;21.33;;;10.07;;
663;SDS011;314;48.770;9.246;2022-08-19T09:52:05;22.05;;;10.80;;
663;SDS011;314;48.770;9.246;2022-08-19T09:54:36;23.20;;;11.38;;
663;SDS011;314;48.770;9.246;2022-08-19T09:57:05;24.85;;;10.68;;
663;SDS011;314;48.770;9.246;2022-08-19T09:59:31;19.87;;;10.37;;
663;SDS011;314;48.770;9.246;2022-08-19T10:01:57;20.48;;;10.98;;
663;SDS011;314;48.770;9.246;2022-08-19T10:04:23;16.97;;;8.33;;
663;SDS011;314;48.770;9.246;2022-08-19T10:07:09;23.77;;;10.73;;
663;SDS011;314;48.770;9.246;2022-08-19T10:09:35;23.75;;;10.65;;
663;SDS011;314;48.770;9.246;2022-08-19T10:12:01;22.70;;;9.13;;
663;SDS011;314;48.770;9.246;2022-08-19T10:14:29;29.70;;;10.65;;
663;SDS011;314;48.770;9.246;2022-08-19T10:16:55;21.63;;;9.20;;
663;SDS011;314;48.770;9.246;2022-08-19T10:19:21;24.55;;;11.52;;
663;SDS011;314;48.770;9.246;2022-08-19T10:21:47;21.17;;;11.13;;
663;SDS011;314;48.770;9.246;2022-08-19T10:24:13;21.10;;;11.70;;
663;SDS011;314;48.770;9.246;2022-08-19T10:26:39;17.90;;;9.73;;
663;SDS011;314;48.770;9.246;2022-08-19T10:29:12;23.55;;;10.90;;
663;SDS011;314;48.770;9.246;2022-08-19T10:31:41;26.65;;;10.90;;
663;SDS011;314;48.770;9.246;2022-08-19T10:34:07;26.63;;;12.32;;
663;SDS011;314;48.770;9.246;2022-08-19T10:36:35;27.60;;;12.30;;
663;SDS011;314;48.770;9.246;2022-08-19T10:39:06;28.25;;;11.45;;
663;SDS011;314;48.770;9.246;2022-08-19T10:41:35;26.52;;;10.77;;
663;SDS011;314;48.770;9.246;2022-08-19T10:44:12;21.63;;;9.90;;
663;SDS011;314;48.770;9.246;2022-08-19T10:46:39;20.50;;;11.27;;
663;SDS011;314;48.770;9.246;2022-08-19T10:49:08;28.02;;;12.07;;
663;SDS011;314;48.770;9.246;2022-08-19T10:51:35;32.20;;;10.85;;
663;SDS011;314;48.770;9.246;2022-08-19T10:54:21;20.67;;;9.90;;
663;SDS011;314;48.770;9.246;2022-08-19T10:56:46;24.70;;;10.83;;
663;SDS011;314;48.770;9.246;2022-08-19T10:59:19;18.90;;;9.90;;
663;SDS011;314;48.770;9.246;2022-08-19T11:01:54;23.05;;;11.13;;
663;SDS011;314;48.770;9.246;2022-08-19T11:04:25;19.00;;;9.20;;
663;SDS011;314;48.770;9.246;2022-08-19T11:06:50;22.15;;;10.38;;
663;SDS011;314;48.770;9.246;2022-08-19T11:09:19;24.80;;;12.63;;
663;SDS011;314;48.770;9.246;2022-08-19T11:11:49;21.90;;;11.10;;
663;SDS011;314;48.770;9.246;2022-08-19T11:14:16;24.02;;;10.75;;
663;SDS011;314;48.770;9.246;2022-08-19T11:16:46;23.60;;;10.73;;
663;SDS011;314;48.770;9.246;2022-08-19T11:19:12;27.20;;;12.70;;
663;SDS011;314;48.770;9.246;2022-08-19T11:21:42;21.85;;;12.45;;
663;SDS011;314;48.770;9.246;2022-08-19T11:24:11;23.77;;;10.80;;
663;SDS011;314;48.770;9.246;2022-08-19T11:26:40;25.55;;;11.75;;
663;SDS011;314;48.770;9.246;2022-08-19T11:29:08;30.20;;;12.90;;
663;SDS011;314;48.770;9.246;2022-08-19T11:31:36;32.70;;;13.27;;
663;SDS011;314;48.770;9.246;2022-08-19T11:34:05;27.17;;;12.85;;
663;SDS011;314;48.770;9.246;2022-08-19T11:36:33;30.15;;;13.07;;
663;SDS011;314;48.770;9.246;2022-08-19T11:39:01;28.17;;;13.10;;
663;SDS011;314;48.770;9.246;2022-08-19T11:41:28;25.13;;;12.93;;
663;SDS011;314;48.770;9.246;2022-08-19T11:43:54;28.10;;;13.93;;
663;SDS011;314;48.770;9.246;2022-08-19T11:46:21;33.22;;;15.13;;
663;SDS011;314;48.770;9.246;2022-08-19T11:48:49;29.02;;;11.40;;
663;SDS011;314;48.770;9.246;2022-08-19T11:51:20;25.13;;;12.07;;
663;SDS011;314;48.770;9.246;2022-08-19T11:53:47;22.42;;;11.25;;
663;SDS011;314;48.770;9.246;2022-08-19T11:56:15;28.33;;;14.57;;
663;SDS011;314;48.770;9.246;2022-08-19T11:58:41;23.85;;;12.68;;
663;SDS011;314;48.770;9.246;2022-08-19T12:01:09;28.27;;;12.43;;
663;SDS011;314;48.770;9.246;2022-08-19T12:03:37;34.47;;;14.00;;
663;SDS011;314;48.770;9.246;2022-08-19T12:06:07;33.28;;;14.45;;
663;SDS011;314;48.770;9.246;2022-08-19T12:08:37;21.58;;;11.10;;
663;SDS011;314;48.770;9.246;2022-08-19T12:11:03;31.13;;;12.30;;
663;SDS011;314;48.770;9.246;2022-08-19T12:13:32;30.77;;;14.00;;
663;SDS011;314;48.770;9.246;2022-08-19T12:15:59;25.92;;;12.73;;
663;SDS011;314;48.770;9.246;2022-08-19T12:18:25;23.63;;;11.40;;
663;SDS011;314;48.770;9.246;2022-08-19T12:20:52;23.45;;;11.55;;
663;SDS011;314;48.770;9.246;2022-08-19T12:23:21;31.52;;;12.43;;
663;SDS011;314;48.770;9.246;2022-08-19T12:25:48;21.73;;;11.10;;
663;SDS011;314;48.770;9.246;2022-08-19T12:28:21;27.45;;;10.57;;
663;SDS011;314;48.770;9.246;2022-08-19T12:30:49;22.83;;;10.32;;
663;SDS011;314;48.770;9.246;2022-08-19T12:33:16;23.75;;;11.10;;
663;SDS011;314;48.770;9.246;2022-08-19T12:35:43;25.55;;;11.43;;
663;SDS011;314;48.770;9.246;2022-08-19T12:38:12;28.15;;;12.85;;
663;SDS011;314;48.770;9.246;2022-08-19T12:40:39;31.48;;;14.65;;
663;SDS011;314;48.770;9.246;2022-08-19T12:43:06;27.65;;;12.10;;
663;SDS011;314;48.770;9.246;2022-08-19T12:45:32;23.95;;;12.70;;
663;SDS011;314;48.770;9.246;2022-08-19T12:47:58;29.95;;;14.57;;
663;SDS011;314;48.770;9.246;2022-08-19T12:50:24;32.13;;;12.50;;
663;SDS011;314;48.770;9.246;2022-08-19T12:52:50;27.70;;;12.40;;
663;SDS011;314;48.770;9.246;2022-08-19T12:55:16;30.60;;;14.95;;
663;SDS011;314;48.770;9.246;2022-08-19T12:57:43;25.92;;;12.85;;
663;SDS011;314;48.770;9.246;2022-08-19T13:00:12;33.35;;;15.77;;
663;SDS011;314;48.770;9.246;2022-08-19T13:02:41;24.20;;;13.10;;
663;SDS011;314;48.770;9.246;2022-08-19T13:05:10;26.23;;;11.73;;
663;SDS011;314;48.770;9.246;2022-08-19T13:07:37;24.95;;;12.88;;
663;SDS011;314;48.770;9.246;2022-08-19T13:10:06;24.25;;;11.98;;
663;SDS011;314;48.770;9.246;2022-08-19T13:12:33;25.83;;;13.27;;
663;SDS011;314;48.770;9.246;2022-08-19T13:15:00;28.00;;;12.55;;
663;SDS011;314;48.770;9.246;2022-08-19T13:17:26;30.45;;;14.23;;
663;SDS011;314;48.770;9.246;2022-08-19T13:19:52;22.80;;;13.33;;
663;SDS011;314;48.770;9.246;2022-08-19T13:22:17;23.90;;;12.87;;
663;SDS011;314;48.770;9.246;2022-08-19T13:24:43;33.53;;;15.20;;
663;SDS011;314;48.770;9.246;2022-08-19T13:27:09;33.67;;;14.20;;
663;SDS011;314;48.770;9.246;2022-08-19T13:29:35;32.03;;;13.23;;
663;SDS011;314;48.770;9.246;2022-08-19T13:32:19;32.53;;;15.35;;
663;SDS011;314;48.770;9.246;2022-08-19T13:35:03;34.88;;;15.50;;
663;SDS011;314;48.770;9.246;2022-08-19T13:37:29;32.88;;;13.80;;
663;SDS011;314;48.770;9.246;2022-08-19T13:40:10;28.05;;;12.25;;
663;SDS011;314;48.770;9.246;2022-08-19T13:42:40;29.13;;;13.60;;
663;SDS011;314;48.770;9.246;2022-08-19T13:45:07;24.33;;;12.85;;
663;SDS011;314;48.770;9.246;2022-08-19T13:47:34;32.10;;;13.68;;
663;SDS011;314;48.770;9.246;2022-08-19T13:50:02;36.20;;;15.82;;
663;SDS011;314;48.770;9.246;2022-08-19T13:52:28;30.35;;;13.25;;
663;SDS011;314;48.770;9.246;2022-08-19T13:54:54;37.13;;;15.60;;
663;SDS011;314;48.770;9.246;2022-08-19T13:57:21;35.53;;;15.05;;
663;SDS011;314;48.770;9.246;2022-08-19T13:59:47;34.08;;;16.38;;
663;SDS011;314;48.770;9.246;2022-08-19T14:02:13;39.53;;;16.47;;
663;SDS011;314;48.770;9.246;2022-08-19T14:04:39;28.77;;;14.47;;
663;SDS011;314;48.770;9.246;2022-08-19T14:07:04;26.77;;;12.20;;
663;SDS011;314;48.770;9.246;2022-08-19T14:09:30;30.27;;;14.87;;
663;SDS011;314;48.770;9.246;2022-08-19T14:11:56;31.33;;;13.50;;
663;SDS011;314;48.770;9.246;2022-08-19T14:14:22;28.58;;;11.45;;
663;SDS011;314;48.770;9.246;2022-08-19T14:16:48;25.40;;;12.30;;
663;SDS011;314;48.770;9.246;2022-08-19T14:19:14;33.40;;;14.25;;
663;SDS011;314;48.770;9.246;2022-08-19T14:21:40;35.70;;;13.67;;
663;SDS011;314;48.770;9.246;2022-08-19T14:24:06;35.20;;;13.30;;
663;SDS011;314;48.770;9.246;2022-08-19T14:26:33;38.17;;;16.52;;
663;SDS011;314;48.770;9.246;2022-08-19T14:28:59;43.17;;;16.80;;
663;SDS011;314;48.770;9.246;2022-08-19T14:31:26;32.92;;;11.38;;
663;SDS011;314;48.770;9.246;2022-08-19T14:33:52;33.97;;;13.00;;
663;SDS011;314;48.770;9.246;2022-08-19T14:36:18;28.20;;;13.43;;
663;SDS011;314;48.770;9.246;2022-08-19T14:38:46;29.40;;;13.32;;
663;SDS011;314;48.770;9.246;2022-08-19T14:41:18;38.58;;;15.68;;
663;SDS011;314;48.770;9.246;2022-08-19T14:43:46;36.10;;;14.85;;
663;SDS011;314;48.770;9.246;2022-08-19T14:46:15;32.72;;;16.10;;
663;SDS011;314;48.770;9.246;2022-08-19T14:48:45;29.77;;;14.98;;
663;SDS011;314;48.770;9.246;2022-08-19T14:51:12;34.08;;;14.18;;
663;SDS011;314;48.770;9.246;2022-08-19T14:53:39;37.10;;;13.05;;
663;SDS011;314;48.770;9.246;2022-08-19T14:56:09;26.85;;;11.65;;
663;SDS011;314;48.770;9.246;2022-08-19T14:58:36;27.13;;;12.85;;
663;SDS011;314;48.770;9.246;2022-08-19T15:01:02;21.63;;;11.30;;
663;SDS011;314;48.770;9.246;2022-08-19T15:03:29;27.10;;;13.45;;
663;SDS011;314;48.770;9.246;2022-08-19T15:05:57;25.85;;;10.95;;
663;SDS011;314;48.770;9.246;2022-08-19T15:08:24;26.67;;;12.57;;
663;SDS011;314;48.770;9.246;2022-08-19T15:10:51;29.60;;;13.85;;
663;SDS011;314;48.770;9.246;2022-08-19T15:13:17;26.55;;;12.43;;
663;SDS011;314;48.770;9.246;2022-08-19T15:15:43;28.00;;;12.50;;
663;SDS011;314;48.770;9.246;2022-08-19T15:18:10;21.90;;;12.35;;
663;SDS011;314;48.770;9.246;2022-08-19T15:20:37;33.45;;;14.10;;
663;SDS011;314;48.770;9.246;2022-08-19T15:23:03;28.25;;;14.85;;
663;SDS011;314;48.770;9.246;2022-08-19T15:25:29;31.00;;;13.07;;
663;SDS011;314;48.770;9.246;2022-08-19T15:27:54;29.77;;;13.63;;
663;SDS011;314;48.770;9.246;2022-08-19T15:30:25;25.85;;;12.95;;
663;SDS011;314;48.770;9.246;2022-08-19T15:32:53;28.15;;;14.18;;
663;SDS011;314;48.770;9.246;2022-08-19T15:35:21;28.45;;;13.93;;
663;SDS011;314;48.770;9.246;2022-08-19T15:37:48;27.23;;;12.15;;